createdAt,value
2023-06-06T00:01:57.063Z,18.49
2023-06-06T00:04:23.757Z,18.56
2023-06-06T00:06:54.088Z,18.69
2023-06-06T00:09:20.895Z,18.59
2023-06-06T00:11:49.838Z,18.35
2023-06-06T00:14:20.166Z,18.22
2023-06-06T00:16:50.822Z,18.27
2023-06-06T00:19:18.984Z,18.45
2023-06-06T00:21:45.884Z,18.34
2023-06-06T00:24:12.543Z,18.27
2023-06-06T00:26:39.691Z,18.19
2023-06-06T00:29:06.607Z,18.16
2023-06-06T00:31:33.259Z,18.13
2023-06-06T00:33:59.829Z,18.16
2023-06-06T00:36:26.384Z,17.97
2023-06-06T00:38:52.942Z,17.91
2023-06-06T00:41:19.511Z,17.77
2023-06-06T00:43:46.257Z,17.67
2023-06-06T00:46:14.669Z,17.69
2023-06-06T00:48:41.321Z,17.67
2023-06-06T00:51:09.614Z,17.81
2023-06-06T00:53:37.547Z,17.52
2023-06-06T00:56:06.188Z,17.75
2023-06-06T00:58:34.221Z,17.70
2023-06-06T01:01:02.811Z,17.56
2023-06-06T01:03:31.210Z,17.54
2023-06-06T01:05:58.020Z,17.53
2023-06-06T01:08:24.671Z,17.59
2023-06-06T01:10:52.489Z,17.56
2023-06-06T01:13:34.554Z,17.65
2023-06-06T01:16:08.909Z,17.62
2023-06-06T01:18:36.613Z,17.57
2023-06-06T01:21:03.341Z,17.75
2023-06-06T01:23:31.519Z,17.72
2023-06-06T01:25:58.292Z,17.52
2023-06-06T01:28:26.318Z,17.40
2023-06-06T01:30:52.999Z,17.47
2023-06-06T01:33:33.939Z,17.51
2023-06-06T01:36:34.398Z,17.30
2023-06-06T01:39:10.023Z,17.21
2023-06-06T01:41:38.659Z,17.05
2023-06-06T01:44:07.245Z,17.06
2023-06-06T01:46:36.036Z,17.05
2023-06-06T01:49:03.347Z,16.96
2023-06-06T01:51:30.290Z,16.90
2023-06-06T01:53:58.726Z,16.88
2023-06-06T01:56:27.202Z,16.80
2023-06-06T01:58:53.814Z,16.70
2023-06-06T02:01:22.024Z,16.62
2023-06-06T02:03:48.984Z,16.92
2023-06-06T02:06:15.832Z,16.80
2023-06-06T02:08:42.563Z,16.95
2023-06-06T02:11:09.264Z,16.87
2023-06-06T02:13:36.139Z,16.89
2023-06-06T02:16:02.800Z,16.88
2023-06-06T02:18:29.375Z,16.73
2023-06-06T02:20:55.898Z,16.66
2023-06-06T02:23:23.047Z,16.64
2023-06-06T02:25:49.975Z,16.65
2023-06-06T02:28:16.794Z,16.59
2023-06-06T02:30:44.009Z,16.69
2023-06-06T02:33:10.637Z,16.77
2023-06-06T02:35:38.197Z,16.79
2023-06-06T02:38:04.758Z,16.67
2023-06-06T02:40:31.277Z,16.57
2023-06-06T02:42:57.782Z,16.23
2023-06-06T02:45:24.372Z,16.27
2023-06-06T02:47:50.980Z,15.86
2023-06-06T02:50:17.567Z,15.74
2023-06-06T02:52:44.065Z,15.85
2023-06-06T02:55:10.760Z,15.77
2023-06-06T02:57:37.569Z,16.04
2023-06-06T03:00:09.053Z,16.20
2023-06-06T03:02:36.388Z,16.16
2023-06-06T03:05:04.635Z,16.13
2023-06-06T03:07:31.829Z,16.03
2023-06-06T03:09:58.517Z,16.30
2023-06-06T03:12:25.098Z,16.27
2023-06-06T03:14:57.724Z,16.03
2023-06-06T03:17:24.921Z,15.69
2023-06-06T03:19:52.224Z,15.60
2023-06-06T03:22:19.164Z,15.40
2023-06-06T03:24:51.228Z,15.58
2023-06-06T03:27:18.363Z,15.55
2023-06-06T03:29:44.941Z,15.55
2023-06-06T03:32:11.558Z,15.22
2023-06-06T03:34:40.465Z,15.22
2023-06-06T03:37:07.188Z,15.22
2023-06-06T03:39:34.916Z,15.20
2023-06-06T03:42:01.841Z,15.27
2023-06-06T03:44:28.432Z,15.53
2023-06-06T03:46:54.911Z,15.46
2023-06-06T03:49:21.479Z,15.55
2023-06-06T03:51:48.211Z,15.63
2023-06-06T03:54:14.778Z,15.60
2023-06-06T03:56:43.771Z,15.72
2023-06-06T03:59:14.563Z,16.14
2023-06-06T04:01:42.178Z,16.10
2023-06-06T04:04:09.590Z,16.09
2023-06-06T04:06:37.052Z,16.13
2023-06-06T04:09:04.263Z,16.16
2023-06-06T04:11:30.976Z,16.20
2023-06-06T04:13:57.649Z,16.16
2023-06-06T04:16:24.303Z,16.15
2023-06-06T04:18:53.681Z,15.94
2023-06-06T04:21:20.728Z,15.92
2023-06-06T04:23:47.820Z,15.99
2023-06-06T04:26:32.711Z,15.88
2023-06-06T04:29:01.193Z,15.97
2023-06-06T04:31:30.594Z,15.87
2023-06-06T04:33:58.572Z,15.80
2023-06-06T04:36:25.267Z,15.85
2023-06-06T04:38:52.793Z,15.98
2023-06-06T04:43:53.127Z,16.09
2023-06-06T04:46:23.075Z,16.18
2023-06-06T04:48:57.388Z,16.07
2023-06-06T04:51:34.730Z,16.09
2023-06-06T04:54:03.938Z,16.09
2023-06-06T04:56:31.091Z,15.88
2023-06-06T04:58:58.418Z,16.02
2023-06-06T05:01:25.549Z,16.02
2023-06-06T05:03:52.299Z,16.07
2023-06-06T05:06:19.025Z,16.07
2023-06-06T05:08:45.721Z,15.89
2023-06-06T05:11:13.050Z,16.11
2023-06-06T05:13:40.343Z,16.15
2023-06-06T05:16:09.179Z,16.27
2023-06-06T05:18:37.001Z,16.38
2023-06-06T05:21:05.198Z,16.45
2023-06-06T05:23:33.339Z,16.53
2023-06-06T05:26:00.193Z,16.59
2023-06-06T05:28:29.865Z,16.62
2023-06-06T05:30:59.301Z,16.75
2023-06-06T05:33:31.833Z,16.77
2023-06-06T05:35:58.583Z,16.78
2023-06-06T05:38:26.855Z,16.91
2023-06-06T05:40:54.210Z,16.56
2023-06-06T05:43:21.248Z,16.49
2023-06-06T05:45:47.870Z,16.44
2023-06-06T05:48:14.777Z,16.42
2023-06-06T05:50:41.642Z,16.01
2023-06-06T05:53:08.404Z,16.16
2023-06-06T05:55:36.401Z,15.95
2023-06-06T05:58:04.895Z,15.94
2023-06-06T06:00:33.584Z,16.17
2023-06-06T06:03:05.337Z,16.27
2023-06-06T06:05:32.484Z,16.35
2023-06-06T06:08:00.913Z,16.48
2023-06-06T06:10:31.298Z,16.65
2023-06-06T06:12:59.182Z,17.00
2023-06-06T06:15:26.319Z,17.10
2023-06-06T06:17:53.274Z,17.17
2023-06-06T06:20:23.592Z,17.36
2023-06-06T06:22:54.736Z,17.47
2023-06-06T06:25:21.914Z,17.61
2023-06-06T06:27:49.970Z,17.95
2023-06-06T06:30:17.565Z,18.19
2023-06-06T06:32:45.592Z,18.29
2023-06-06T06:35:12.514Z,18.54
2023-06-06T06:37:40.833Z,18.72
2023-06-06T06:40:11.318Z,18.77
2023-06-06T06:42:43.269Z,18.92
2023-06-06T06:45:13.426Z,19.15
2023-06-06T06:47:41.702Z,19.00
2023-06-06T06:50:09.300Z,19.07
2023-06-06T06:52:36.708Z,18.77
2023-06-06T06:55:06.202Z,18.88
2023-06-06T06:57:35.080Z,19.19
2023-06-06T07:00:12.745Z,19.01
2023-06-06T07:02:59.189Z,18.96
2023-06-06T07:05:26.086Z,18.93
2023-06-06T07:07:55.460Z,18.99
2023-06-06T07:10:24.628Z,19.41
2023-06-06T07:12:53.223Z,19.64
2023-06-06T07:15:21.817Z,19.87
2023-06-06T07:17:51.569Z,20.25
2023-06-06T07:20:21.282Z,20.64
2023-06-06T07:22:57.426Z,20.92
2023-06-06T07:25:24.570Z,21.11
2023-06-06T07:27:51.205Z,21.31
2023-06-06T07:30:17.889Z,21.54
2023-06-06T07:32:46.524Z,21.57
2023-06-06T07:35:15.022Z,21.76
2023-06-06T07:37:41.884Z,21.85
2023-06-06T07:40:10.508Z,22.12
2023-06-06T07:42:37.236Z,22.37
2023-06-06T07:45:07.322Z,22.65
2023-06-06T07:47:33.946Z,22.80
2023-06-06T07:50:00.909Z,22.81
2023-06-06T07:52:27.588Z,22.72
2023-06-06T07:54:54.465Z,23.01
2023-06-06T07:57:21.211Z,23.15
2023-06-06T07:59:48.034Z,23.11
2023-06-06T08:02:15.877Z,23.17
2023-06-06T08:04:47.113Z,23.41
2023-06-06T08:07:31.013Z,23.71
2023-06-06T08:09:58.643Z,24.06
2023-06-06T08:12:25.197Z,23.78
2023-06-06T08:14:51.665Z,23.99
2023-06-06T08:17:18.198Z,24.07
2023-06-06T08:19:44.768Z,24.22
2023-06-06T08:22:11.854Z,24.26
2023-06-06T08:24:38.815Z,24.52
2023-06-06T08:27:06.715Z,24.87
2023-06-06T08:29:33.259Z,25.20
2023-06-06T08:32:01.919Z,25.49
2023-06-06T08:34:29.356Z,25.78
2023-06-06T08:36:56.933Z,26.17
2023-06-06T08:39:23.736Z,26.31
2023-06-06T08:41:54.977Z,26.46
2023-06-06T08:44:23.940Z,26.78
2023-06-06T08:46:55.264Z,27.13
2023-06-06T08:49:22.812Z,27.27
2023-06-06T08:51:53.760Z,26.86
2023-06-06T08:54:21.383Z,27.13
2023-06-06T08:56:48.677Z,27.40
2023-06-06T08:59:15.952Z,27.51
2023-06-06T09:01:43.286Z,27.55
2023-06-06T09:04:11.094Z,27.77
2023-06-06T09:06:45.349Z,28.04
2023-06-06T09:09:14.115Z,28.41
2023-06-06T09:11:41.010Z,28.89
2023-06-06T09:14:08.481Z,29.05
2023-06-06T09:16:35.381Z,29.03
2023-06-06T09:19:04.067Z,28.91
2023-06-06T09:21:34.548Z,28.59
2023-06-06T09:24:02.332Z,28.83
2023-06-06T09:26:29.720Z,29.45
2023-06-06T09:28:57.004Z,29.82
2023-06-06T09:31:35.490Z,30.23
2023-06-06T09:34:03.068Z,30.43
2023-06-06T09:36:31.521Z,30.52
2023-06-06T09:39:11.748Z,29.87
2023-06-06T09:41:43.540Z,29.99
2023-06-06T09:44:26.581Z,30.03
2023-06-06T09:47:01.300Z,29.91
2023-06-06T09:49:37.685Z,30.23
2023-06-06T09:52:06.121Z,30.64
2023-06-06T09:54:33.388Z,31.35
2023-06-06T09:57:00.953Z,31.83
2023-06-06T09:59:29.233Z,32.42
2023-06-06T10:02:03.436Z,32.34
2023-06-06T10:04:31.857Z,32.39
2023-06-06T10:07:04.210Z,31.34
2023-06-06T10:09:31.569Z,31.86
2023-06-06T10:11:58.857Z,32.03
2023-06-06T10:14:27.862Z,32.58
2023-06-06T10:16:54.812Z,32.92
2023-06-06T10:19:23.213Z,33.35
2023-06-06T10:21:52.058Z,33.78
2023-06-06T10:24:18.966Z,34.28
2023-06-06T10:26:45.575Z,34.53
2023-06-06T10:29:23.959Z,34.95
2023-06-06T10:32:06.589Z,35.15
2023-06-06T10:34:39.155Z,35.07
2023-06-06T10:37:16.336Z,35.08
2023-06-06T10:39:47.655Z,35.02
2023-06-06T10:42:15.940Z,34.34
2023-06-06T10:44:56.972Z,34.27
2023-06-06T10:47:28.805Z,34.61
2023-06-06T10:50:14.154Z,34.41
2023-06-06T10:52:55.050Z,33.82
2023-06-06T10:55:21.571Z,33.94
2023-06-06T10:57:55.286Z,34.29
2023-06-06T11:00:24.787Z,34.61
2023-06-06T11:02:53.938Z,34.83
2023-06-06T11:05:22.719Z,35.29
2023-06-06T11:07:53.198Z,35.65
2023-06-06T11:10:23.417Z,35.76
2023-06-06T11:12:53.291Z,35.66
2023-06-06T11:15:32.511Z,35.52
2023-06-06T11:18:05.511Z,35.38
2023-06-06T11:20:41.910Z,35.55
2023-06-06T11:23:12.031Z,35.90
2023-06-06T11:25:38.854Z,35.88
2023-06-06T11:28:09.958Z,36.27
2023-06-06T11:30:38.226Z,35.55
2023-06-06T11:33:11.745Z,34.43
2023-06-06T11:35:41.577Z,34.39
2023-06-06T11:38:08.530Z,34.79
2023-06-06T11:40:35.235Z,35.23
2023-06-06T11:43:03.469Z,35.67
2023-06-06T11:45:32.548Z,35.43
2023-06-06T11:48:14.491Z,34.21
2023-06-06T11:50:45.187Z,34.02
2023-06-06T11:53:12.046Z,34.20
2023-06-06T11:55:39.613Z,33.93
2023-06-06T11:58:06.537Z,33.79
2023-06-06T12:00:34.421Z,33.51
2023-06-06T12:03:02.083Z,34.11
2023-06-06T12:05:30.440Z,33.72
2023-06-06T12:08:01.321Z,33.53
2023-06-06T12:10:31.629Z,33.58
2023-06-06T12:12:59.641Z,33.27
2023-06-06T12:15:45.451Z,33.51
2023-06-06T12:18:14.683Z,34.03
2023-06-06T12:20:43.562Z,34.46
2023-06-06T12:23:10.607Z,34.37
2023-06-06T12:25:37.153Z,33.46
2023-06-06T12:28:11.515Z,33.22
2023-06-06T12:30:40.269Z,33.11
2023-06-06T12:33:09.921Z,32.26
2023-06-06T12:35:36.986Z,32.60
2023-06-06T12:38:03.778Z,33.05
2023-06-06T12:40:37.810Z,32.68
2023-06-06T12:43:06.279Z,32.71
2023-06-06T12:45:37.520Z,33.07
2023-06-06T12:48:04.870Z,33.76
2023-06-06T12:50:32.038Z,33.90
2023-06-06T12:52:59.362Z,33.48
2023-06-06T12:55:25.966Z,33.44
2023-06-06T12:57:52.528Z,33.32
2023-06-06T13:00:20.853Z,32.51
2023-06-06T13:02:48.960Z,31.85
2023-06-06T13:05:16.188Z,31.96
2023-06-06T13:07:42.976Z,32.76
2023-06-06T13:10:12.554Z,33.76
2023-06-06T13:12:41.495Z,34.45
2023-06-06T13:15:13.104Z,34.84
2023-06-06T13:17:40.408Z,35.01
2023-06-06T13:20:10.491Z,35.10
2023-06-06T13:22:38.320Z,34.66
2023-06-06T13:25:05.376Z,34.39
2023-06-06T13:27:32.222Z,33.99
2023-06-06T13:29:58.818Z,34.06
2023-06-06T13:32:25.601Z,34.56
2023-06-06T13:34:52.309Z,33.98
2023-06-06T13:37:18.896Z,34.21
2023-06-06T13:39:45.644Z,34.25
2023-06-06T13:42:15.031Z,34.30
2023-06-06T13:44:42.085Z,34.69
2023-06-06T13:47:09.972Z,34.69
2023-06-06T13:49:36.952Z,34.81
2023-06-06T13:52:03.798Z,35.34
2023-06-06T13:54:30.433Z,35.70
2023-06-06T13:57:01.852Z,36.13
2023-06-06T13:59:30.009Z,36.34
2023-06-06T14:01:57.143Z,36.42
2023-06-06T14:04:23.966Z,36.38
2023-06-06T14:06:52.215Z,36.25
2023-06-06T14:09:23.355Z,35.87
2023-06-06T14:11:54.006Z,35.02
2023-06-06T14:14:20.643Z,35.19
2023-06-06T14:16:47.447Z,35.61
2023-06-06T14:19:15.795Z,35.87
2023-06-06T14:21:43.413Z,35.96
2023-06-06T14:24:11.497Z,35.61
2023-06-06T14:26:39.486Z,35.00
2023-06-06T14:29:06.538Z,34.21
2023-06-06T14:31:33.571Z,33.01
2023-06-06T14:34:00.831Z,33.02
2023-06-06T14:36:27.712Z,33.34
2023-06-06T14:38:54.544Z,33.68
2023-06-06T14:41:27.020Z,33.82
2023-06-06T14:43:58.480Z,33.98
2023-06-06T14:46:29.424Z,33.27
2023-06-06T14:48:56.350Z,32.77
2023-06-06T14:51:23.211Z,32.49
2023-06-06T14:53:49.991Z,32.38
2023-06-06T14:56:18.503Z,31.81
2023-06-06T14:58:45.991Z,31.84
2023-06-06T15:01:13.023Z,31.93
2023-06-06T15:03:39.910Z,31.93
2023-06-06T15:06:06.795Z,31.76
2023-06-06T15:08:33.817Z,31.63
2023-06-06T15:11:01.211Z,31.57
2023-06-06T15:13:30.948Z,31.63
2023-06-06T15:15:58.115Z,31.48
2023-06-06T15:18:24.967Z,31.65
2023-06-06T15:20:51.723Z,31.54
2023-06-06T15:23:18.503Z,31.58
2023-06-06T15:25:47.936Z,31.74
2023-06-06T15:28:18.281Z,31.57
2023-06-06T15:30:46.069Z,30.84
2023-06-06T15:33:14.287Z,30.64
2023-06-06T15:35:42.557Z,30.79
2023-06-06T15:38:09.514Z,30.79
2023-06-06T15:40:38.023Z,30.89
2023-06-06T15:43:15.591Z,30.81
2023-06-06T15:45:45.907Z,30.44
2023-06-06T15:48:13.212Z,29.98
2023-06-06T15:50:39.836Z,29.86
2023-06-06T15:53:06.430Z,29.92
2023-06-06T15:55:33.114Z,29.74
2023-06-06T15:57:59.797Z,29.58
2023-06-06T16:00:27.248Z,29.53
2023-06-06T16:02:54.253Z,29.67
2023-06-06T16:05:21.628Z,29.70
2023-06-06T16:07:48.187Z,29.89
2023-06-06T16:10:14.767Z,29.94
2023-06-06T16:12:41.335Z,29.96
2023-06-06T16:15:09.543Z,29.94
2023-06-06T16:17:36.176Z,29.78
2023-06-06T16:20:04.126Z,29.57
2023-06-06T16:22:30.738Z,29.49
2023-06-06T16:24:57.426Z,29.70
2023-06-06T16:27:24.325Z,29.80
2023-06-06T16:29:51.139Z,30.06
2023-06-06T16:32:17.842Z,30.00
2023-06-06T16:34:44.606Z,30.06
2023-06-06T16:37:11.230Z,30.37
2023-06-06T16:39:38.124Z,30.52
2023-06-06T16:42:04.953Z,30.72
2023-06-06T16:44:32.176Z,30.67
2023-06-06T16:46:58.756Z,30.88
2023-06-06T16:49:25.554Z,31.03
2023-06-06T16:51:53.062Z,30.82
2023-06-06T16:54:21.563Z,30.43
2023-06-06T16:56:48.258Z,30.31
2023-06-06T16:59:15.471Z,30.31
2023-06-06T17:01:42.360Z,30.29
2023-06-06T17:04:09.234Z,30.52
2023-06-06T17:06:35.933Z,30.59
2023-06-06T17:09:02.510Z,30.51
2023-06-06T17:11:29.324Z,30.32
2023-06-06T17:13:56.153Z,30.24
2023-06-06T17:16:22.775Z,30.17
2023-06-06T17:18:49.975Z,30.01
2023-06-06T17:21:16.805Z,29.62
2023-06-06T17:23:43.406Z,29.34
2023-06-06T17:26:10.004Z,29.05
2023-06-06T17:28:36.621Z,28.65
2023-06-06T17:31:03.910Z,28.42
2023-06-06T17:33:30.571Z,28.26
2023-06-06T17:35:57.155Z,28.23
2023-06-06T17:38:23.761Z,28.32
2023-06-06T17:40:50.789Z,28.34
2023-06-06T17:43:18.087Z,28.18
2023-06-06T17:45:44.749Z,28.07
2023-06-06T17:48:13.528Z,27.94
2023-06-06T17:50:41.841Z,27.69
2023-06-06T17:53:08.682Z,27.46
2023-06-06T17:55:36.448Z,27.28
2023-06-06T17:58:03.071Z,27.24
2023-06-06T18:00:29.600Z,27.14
2023-06-06T18:02:56.344Z,27.16
2023-06-06T18:07:57.996Z,27.20
2023-06-06T18:10:24.808Z,27.20
2023-06-06T18:12:51.411Z,27.00
2023-06-06T18:15:18.360Z,26.97
2023-06-06T18:17:48.342Z,26.96
2023-06-06T18:20:15.211Z,26.90
2023-06-06T18:22:42.218Z,26.85
2023-06-06T18:25:11.377Z,26.79
2023-06-06T18:27:38.483Z,26.77
2023-06-06T18:30:08.046Z,26.68
2023-06-06T18:32:35.065Z,26.49
2023-06-06T18:35:02.351Z,26.44
2023-06-06T18:37:29.129Z,26.45
2023-06-06T18:39:55.831Z,26.38
2023-06-06T18:42:23.152Z,26.24
2023-06-06T18:44:50.028Z,26.21
2023-06-06T18:47:17.016Z,26.00
2023-06-06T18:49:44.603Z,25.92
2023-06-06T18:52:11.634Z,25.95
2023-06-06T18:54:38.360Z,25.74
2023-06-06T18:57:08.820Z,25.66
2023-06-06T18:59:39.151Z,25.59
2023-06-06T19:02:07.362Z,25.57
2023-06-06T19:04:34.454Z,25.48
2023-06-06T19:10:09.329Z,25.26
2023-06-06T19:12:47.722Z,25.21
2023-06-06T19:15:16.783Z,25.21
2023-06-06T19:17:43.814Z,25.01
2023-06-06T19:20:12.236Z,24.87
2023-06-06T19:22:39.226Z,24.83
2023-06-06T19:25:08.363Z,24.70
2023-06-06T19:27:34.974Z,24.65
2023-06-06T19:30:02.723Z,24.50
2023-06-06T19:32:55.717Z,24.11
2023-06-06T19:35:22.766Z,24.04
2023-06-06T19:37:49.399Z,23.90
2023-06-06T19:40:22.622Z,23.82
2023-06-06T19:42:50.748Z,23.71
2023-06-06T19:45:18.750Z,23.63
2023-06-06T19:47:49.894Z,23.46
2023-06-06T19:50:16.929Z,23.35
2023-06-06T20:00:26.343Z,23.09
2023-06-06T20:10:51.380Z,22.51
2023-06-06T20:17:15.080Z,22.32
2023-06-06T20:19:46.433Z,22.22
2023-06-06T20:22:13.296Z,22.09
2023-06-06T20:24:42.865Z,21.97
2023-06-06T20:27:44.868Z,21.94
2023-06-06T20:34:51.549Z,21.73
2023-06-06T20:37:18.329Z,21.72
2023-06-06T20:40:05.104Z,21.73
2023-06-06T20:42:44.919Z,21.62
2023-06-06T20:45:11.908Z,21.61
2023-06-06T20:47:41.035Z,21.72
2023-06-06T20:50:10.769Z,21.69
2023-06-06T20:52:44.482Z,21.69
2023-06-06T20:55:15.358Z,21.54
2023-06-06T20:57:42.325Z,21.49
2023-06-06T21:00:11.192Z,21.36
2023-06-06T21:02:38.268Z,21.24
2023-06-06T21:05:07.250Z,21.13
2023-06-06T21:07:33.929Z,20.93
2023-06-06T21:10:01.311Z,20.85
2023-06-06T21:12:28.512Z,20.74
2023-06-06T21:14:55.100Z,20.78
2023-06-06T21:17:22.734Z,20.94
2023-06-06T21:19:50.098Z,20.98
2023-06-06T21:22:19.690Z,20.89
2023-06-06T21:24:50.376Z,20.97
2023-06-06T21:27:17.578Z,20.90
2023-06-06T21:29:44.390Z,20.73
2023-06-06T21:32:14.063Z,20.77
2023-06-06T21:34:40.854Z,20.63
2023-06-06T21:37:07.731Z,20.56
2023-06-06T21:39:34.427Z,20.51
2023-06-06T21:42:03.142Z,20.45
2023-06-06T21:44:30.086Z,20.48
2023-06-06T21:46:57.051Z,20.52
2023-06-06T21:49:24.245Z,20.40
2023-06-06T21:51:50.868Z,20.32
2023-06-06T21:54:17.461Z,20.21
2023-06-06T21:56:44.132Z,20.19
2023-06-06T21:59:10.872Z,20.12
2023-06-06T22:01:37.396Z,19.89
2023-06-06T22:04:04.346Z,19.75
2023-06-06T22:06:31.322Z,19.63
2023-06-06T22:08:57.817Z,19.55
2023-06-06T22:11:24.693Z,19.48
2023-06-06T22:13:51.430Z,19.43
2023-06-06T22:16:18.217Z,19.51
2023-06-06T22:18:44.867Z,19.51
2023-06-06T22:21:29.748Z,19.52
2023-06-06T22:23:56.490Z,19.33
2023-06-06T22:26:24.087Z,19.22
2023-06-06T22:28:51.286Z,19.17
2023-06-06T22:31:18.361Z,19.15
2023-06-06T22:33:44.966Z,19.11
2023-06-06T22:36:11.463Z,19.20
2023-06-06T22:38:38.074Z,19.03
2023-06-06T22:41:04.850Z,18.87
2023-06-06T22:43:31.405Z,18.86
2023-06-06T22:45:58.016Z,18.59
2023-06-06T22:48:24.656Z,18.62
2023-06-06T22:50:51.355Z,18.67
2023-06-06T22:53:18.436Z,18.62
2023-06-06T22:55:45.386Z,18.61
2023-06-06T22:58:13.506Z,18.51
2023-06-06T23:00:40.298Z,18.50
2023-06-06T23:03:06.990Z,18.50
2023-06-06T23:05:33.702Z,18.57
2023-06-06T23:08:00.586Z,18.48
2023-06-06T23:10:27.798Z,18.37
2023-06-06T23:12:54.477Z,18.30
2023-06-06T23:15:22.171Z,18.19
2023-06-06T23:17:49.113Z,18.31
2023-06-06T23:20:15.915Z,18.24
2023-06-06T23:22:43.722Z,18.29
2023-06-06T23:25:11.583Z,18.31
2023-06-06T23:27:38.879Z,18.34
2023-06-06T23:30:07.069Z,18.43
2023-06-06T23:32:34.177Z,18.42
2023-06-06T23:35:00.882Z,18.30
2023-06-06T23:37:27.529Z,18.20
2023-06-06T23:39:55.038Z,18.13
2023-06-06T23:42:21.833Z,18.16
2023-06-06T23:44:48.724Z,18.05
2023-06-06T23:47:15.326Z,18.01
2023-06-06T23:49:41.881Z,17.80
2023-06-06T23:52:08.487Z,17.84
2023-06-06T23:54:35.009Z,17.83
2023-06-06T23:57:01.574Z,17.85
2023-06-06T23:59:28.095Z,17.91
